createdAt,value
2023-04-01T00:04:03.087Z,10.70
2023-04-01T00:08:07.541Z,10.70
2023-04-01T00:12:10.747Z,10.70
2023-04-01T00:16:21.542Z,10.70
2023-04-01T00:20:27.162Z,10.60
2023-04-01T00:24:31.713Z,10.60
2023-04-01T00:28:35.772Z,10.60
2023-04-01T00:32:38.658Z,10.60
2023-04-01T00:36:41.541Z,10.60
2023-04-01T00:40:46.772Z,10.50
2023-04-01T00:44:50.125Z,10.50
2023-04-01T00:48:54.249Z,10.50
2023-04-01T00:52:57.109Z,10.50
2023-04-01T00:57:02.790Z,10.50
2023-04-01T01:01:05.942Z,10.40
2023-04-01T01:05:08.893Z,10.40
2023-04-01T01:09:25.787Z,10.40
2023-04-01T01:13:33.107Z,10.40
2023-04-01T01:17:42.016Z,10.40
2023-04-01T01:21:49.675Z,10.40
2023-04-01T01:25:57.801Z,10.40
2023-04-01T01:30:14.731Z,10.40
2023-04-01T01:34:20.571Z,10.40
2023-04-01T01:38:26.413Z,10.40
2023-04-01T01:42:31.396Z,10.40
2023-04-01T01:46:35.026Z,10.40
2023-04-01T01:50:38.780Z,10.30
2023-04-01T01:54:50.428Z,10.30
2023-04-01T01:58:54.527Z,10.40
2023-04-01T02:02:58.510Z,10.30
2023-04-01T02:07:04.397Z,10.30
2023-04-01T02:11:09.695Z,10.30
2023-04-01T02:15:14.484Z,10.30
2023-04-01T02:19:23.632Z,10.30
2023-04-01T02:23:26.622Z,10.30
2023-04-01T02:27:32.180Z,10.30
2023-04-01T02:31:35.585Z,10.30
2023-04-01T02:35:38.634Z,10.30
2023-04-01T02:39:41.523Z,10.20
2023-04-01T02:43:45.689Z,10.20
2023-04-01T02:47:48.524Z,10.20
2023-04-01T02:51:52.875Z,10.20
2023-04-01T02:55:55.990Z,10.20
2023-04-01T03:00:00.175Z,10.20
2023-04-01T03:04:03.280Z,10.20
2023-04-01T03:08:06.409Z,10.20
2023-04-01T03:12:09.198Z,10.20
2023-04-01T03:16:13.444Z,10.10
2023-04-01T03:20:16.592Z,10.10
2023-04-01T03:24:19.393Z,10.10
2023-04-01T03:28:22.183Z,10.10
2023-04-01T03:32:26.319Z,10.10
2023-04-01T03:36:29.170Z,10.10
2023-04-01T03:40:31.981Z,10.10
2023-04-01T03:44:35.061Z,10.00
2023-04-01T03:48:39.337Z,10.00
2023-04-01T03:52:42.143Z,10.00
2023-04-01T03:56:45.072Z,10.00
2023-04-01T04:00:48.070Z,10.00
2023-04-01T04:04:52.276Z,10.00
2023-04-01T04:08:55.292Z,10.00
2023-04-01T04:12:58.272Z,10.00
2023-04-01T04:17:01.038Z,10.00
2023-04-01T04:21:05.546Z,10.00
2023-04-01T04:25:09.026Z,10.00
2023-04-01T04:29:11.842Z,10.00
2023-04-01T04:33:14.664Z,10.00
2023-04-01T04:37:18.794Z,10.00
2023-04-01T04:41:23.252Z,10.00
2023-04-01T04:45:26.231Z,9.90
2023-04-01T04:49:29.058Z,9.90
2023-04-01T04:53:33.246Z,9.90
2023-04-01T04:57:36.185Z,9.90
2023-04-01T05:01:39.249Z,9.90
2023-04-01T05:05:42.112Z,9.90
2023-04-01T05:09:47.929Z,9.90
2023-04-01T05:13:51.301Z,9.90
2023-04-01T05:17:54.161Z,9.90
2023-04-01T05:21:57.061Z,9.90
2023-04-01T05:26:01.250Z,9.90
2023-04-01T05:30:04.301Z,9.90
2023-04-01T05:34:07.196Z,9.90
2023-04-01T05:38:10.011Z,9.90
2023-04-01T05:42:14.352Z,9.90
2023-04-01T05:46:17.222Z,9.90
2023-04-01T05:50:20.367Z,9.90
2023-04-01T05:54:23.192Z,10.00
2023-04-01T05:58:27.437Z,10.00
2023-04-01T06:02:30.235Z,10.00
2023-04-01T06:06:33.857Z,10.00
2023-04-01T06:10:40.235Z,10.00
2023-04-01T06:14:49.478Z,10.00
2023-04-01T06:18:57.799Z,10.00
2023-04-01T06:23:07.820Z,10.10
2023-04-01T06:27:16.022Z,10.10
2023-04-01T06:31:28.216Z,10.10
2023-04-01T06:35:38.659Z,10.10
2023-04-01T06:39:59.124Z,10.20
2023-04-01T06:44:08.208Z,10.20
2023-04-01T06:48:18.467Z,10.20
2023-04-01T06:52:25.594Z,10.30
2023-04-01T06:56:30.416Z,10.30
2023-04-01T07:00:34.424Z,10.40
2023-04-01T07:04:41.647Z,10.40
2023-04-01T07:08:46.656Z,10.40
2023-04-01T07:12:51.810Z,10.50
2023-04-01T07:16:59.012Z,10.50
2023-04-01T07:21:03.611Z,10.50
2023-04-01T07:25:08.099Z,10.60
2023-04-01T07:29:13.070Z,10.60
2023-04-01T07:33:17.437Z,10.60
2023-04-01T07:37:26.815Z,10.60
2023-04-01T07:41:34.351Z,10.70
2023-04-01T07:45:38.597Z,10.70
2023-04-01T07:49:46.348Z,10.70
2023-04-01T07:53:51.936Z,10.80
2023-04-01T07:57:59.195Z,10.80
2023-04-01T08:02:07.275Z,10.90
2023-04-01T08:06:15.462Z,11.00
2023-04-01T08:10:22.518Z,11.00
2023-04-01T08:14:28.984Z,11.20
2023-04-01T08:18:36.594Z,11.20
2023-04-01T08:22:42.480Z,11.30
2023-04-01T08:26:48.946Z,11.40
2023-04-01T08:30:54.588Z,11.50
2023-04-01T08:35:09.028Z,11.70
2023-04-01T08:39:15.521Z,11.80
2023-04-01T08:43:23.792Z,11.90
2023-04-01T08:47:41.555Z,12.00
2023-04-01T08:52:05.169Z,12.10
2023-04-01T08:56:14.439Z,12.10
2023-04-01T09:00:23.948Z,12.20
2023-04-01T09:04:28.953Z,12.20
2023-04-01T09:08:36.833Z,12.20
2023-04-01T09:12:49.917Z,12.20
2023-04-01T09:17:11.423Z,12.30
2023-04-01T09:21:26.861Z,12.30
2023-04-01T09:25:40.794Z,12.30
2023-04-01T09:30:05.210Z,12.30
2023-04-01T09:34:17.783Z,12.30
2023-04-01T09:38:24.053Z,12.30
2023-04-01T09:42:42.304Z,12.30
2023-04-01T09:46:51.144Z,12.30
2023-04-01T09:50:59.391Z,12.30
2023-04-01T09:55:08.704Z,12.20
2023-04-01T09:59:26.425Z,12.20
2023-04-01T10:03:39.579Z,12.20
2023-04-01T10:07:57.801Z,12.10
2023-04-01T10:12:21.765Z,12.10
2023-04-01T10:16:39.565Z,12.10
2023-04-01T10:20:55.336Z,12.10
2023-04-01T10:25:22.289Z,12.10
2023-04-01T10:29:42.979Z,12.10
2023-04-01T10:33:58.884Z,12.00
2023-04-01T10:38:15.726Z,12.00
2023-04-01T10:42:35.910Z,12.00
2023-04-01T10:46:53.589Z,12.00
2023-04-01T10:51:07.318Z,12.00
2023-04-01T10:55:21.147Z,12.00
2023-04-01T10:59:45.082Z,12.10
2023-04-01T11:04:14.607Z,12.10
2023-04-01T11:08:38.170Z,12.10
2023-04-01T11:12:53.752Z,12.20
2023-04-01T11:17:09.718Z,12.20
2023-04-01T11:21:30.137Z,12.30
2023-04-01T11:25:47.443Z,12.30
2023-04-01T11:30:00.579Z,12.40
2023-04-01T11:34:10.040Z,12.40
2023-04-01T11:38:20.101Z,12.50
2023-04-01T11:42:26.093Z,12.50
2023-04-01T11:46:35.778Z,12.50
2023-04-01T11:50:45.466Z,12.60
2023-04-01T11:55:12.095Z,12.60
2023-04-01T11:59:32.783Z,12.70
2023-04-01T12:03:56.607Z,12.80
2023-04-01T12:08:08.409Z,12.90
2023-04-01T12:12:17.209Z,13.00
2023-04-01T12:16:41.027Z,13.10
2023-04-01T12:20:48.748Z,13.20
2023-04-01T12:24:56.442Z,13.30
2023-04-01T12:29:10.607Z,13.40
2023-04-01T12:33:22.603Z,13.60
2023-04-01T12:37:31.590Z,13.80
2023-04-01T12:41:42.504Z,14.00
2023-04-01T12:45:48.912Z,14.40
2023-04-01T12:49:58.974Z,14.40
2023-04-01T12:54:13.152Z,14.50
2023-04-01T12:58:28.044Z,14.50
2023-04-01T13:02:39.452Z,14.60
2023-04-01T13:06:48.071Z,14.60
2023-04-01T13:10:56.535Z,14.60
2023-04-01T13:15:22.541Z,14.70
2023-04-01T13:19:28.984Z,14.70
2023-04-01T13:23:36.071Z,14.80
2023-04-01T13:27:41.438Z,14.80
2023-04-01T13:31:53.977Z,14.80
2023-04-01T13:36:01.948Z,14.90
2023-04-01T13:40:16.234Z,15.00
2023-04-01T13:44:21.574Z,15.00
2023-04-01T13:48:48.397Z,15.00
2023-04-01T13:53:03.842Z,15.00
2023-04-01T13:57:16.677Z,14.90
2023-04-01T14:01:26.035Z,14.90
2023-04-01T14:05:43.194Z,14.80
2023-04-01T14:09:51.473Z,14.80
2023-04-01T14:13:58.746Z,14.70
2023-04-01T14:18:10.425Z,14.60
2023-04-01T14:22:20.366Z,14.50
2023-04-01T14:26:37.401Z,14.50
2023-04-01T14:30:50.741Z,14.40
2023-04-01T14:34:59.307Z,14.20
2023-04-01T14:39:09.935Z,14.10
2023-04-01T14:43:22.954Z,13.90
2023-04-01T14:47:42.066Z,13.70
2023-04-01T14:51:46.315Z,13.50
2023-04-01T14:55:51.461Z,13.30
2023-04-01T14:59:56.235Z,13.00
2023-04-01T15:04:06.590Z,12.90
2023-04-01T15:08:15.568Z,12.70
2023-04-01T15:12:23.811Z,12.60
2023-04-01T15:16:32.751Z,12.40
2023-04-01T15:20:50.464Z,12.30
2023-04-01T15:24:58.686Z,12.10
2023-04-01T15:29:09.548Z,12.00
2023-04-01T15:33:25.557Z,11.90
2023-04-01T15:37:34.084Z,11.70
2023-04-01T15:41:40.758Z,11.60
2023-04-01T15:45:48.406Z,11.50
2023-04-01T15:49:53.984Z,11.40
2023-04-01T15:54:14.762Z,11.30
2023-04-01T15:58:28.390Z,11.20
2023-04-01T16:02:33.593Z,11.10
2023-04-01T16:06:54.124Z,11.00
2023-04-01T16:11:04.860Z,11.00
2023-04-01T16:15:15.951Z,10.90
2023-04-01T16:19:24.393Z,10.80
2023-04-01T16:23:30.769Z,10.70
2023-04-01T16:27:42.446Z,10.60
2023-04-01T16:31:47.204Z,10.50
2023-04-01T16:35:55.326Z,10.40
2023-04-01T16:40:04.798Z,10.40
2023-04-01T16:44:16.512Z,10.30
2023-04-01T16:48:21.450Z,10.20
2023-04-01T16:52:38.481Z,10.10
2023-04-01T16:56:43.990Z,10.10
2023-04-01T17:00:50.817Z,10.00
2023-04-01T17:04:59.939Z,9.90
2023-04-01T17:09:16.157Z,9.90
2023-04-01T17:13:29.832Z,9.80
2023-04-01T17:17:39.559Z,9.70
2023-04-01T17:21:49.102Z,9.60
2023-04-01T17:26:05.498Z,9.60
2023-04-01T17:30:16.228Z,9.60
2023-04-01T17:34:29.719Z,9.50
2023-04-01T17:38:47.992Z,9.50
2023-04-01T17:42:55.955Z,9.40
2023-04-01T17:47:03.316Z,9.30
2023-04-01T17:51:12.778Z,9.30
2023-04-01T17:55:42.744Z,9.20
2023-04-01T17:59:50.062Z,9.10
2023-04-01T18:03:58.105Z,9.10
2023-04-01T18:08:19.122Z,9.00
2023-04-01T18:12:27.286Z,9.00
2023-04-01T18:16:40.846Z,8.90
2023-04-01T18:20:47.513Z,8.90
2023-04-01T18:24:56.457Z,8.80
2023-04-01T18:29:03.856Z,8.80
2023-04-01T18:33:11.365Z,8.70
2023-04-01T18:37:19.177Z,8.70
2023-04-01T18:41:29.618Z,8.60
2023-04-01T18:45:35.880Z,8.60
2023-04-01T18:49:43.998Z,8.50
2023-04-01T18:53:49.525Z,8.50
2023-04-01T18:57:54.206Z,8.50
2023-04-01T19:02:03.012Z,8.40
2023-04-01T19:06:11.060Z,8.40
2023-04-01T19:10:15.818Z,8.40
2023-04-01T19:14:21.141Z,8.40
2023-04-01T19:18:42.680Z,8.30
2023-04-01T19:22:58.300Z,8.20
2023-04-01T19:27:04.224Z,8.20
2023-04-01T19:31:10.831Z,8.10
2023-04-01T19:35:21.471Z,8.10
2023-04-01T19:39:32.678Z,8.00
2023-04-01T19:43:41.495Z,8.00
2023-04-01T19:47:50.118Z,7.90
2023-04-01T19:51:58.358Z,7.90
2023-04-01T19:56:05.866Z,7.80
2023-04-01T20:00:11.831Z,7.70
2023-04-01T20:04:17.019Z,7.70
2023-04-01T20:08:24.803Z,7.70
2023-04-01T20:12:35.500Z,7.60
2023-04-01T20:16:59.251Z,7.60
2023-04-01T20:21:04.544Z,7.60
2023-04-01T20:25:13.899Z,7.50
2023-04-01T20:29:31.786Z,7.50
2023-04-01T20:33:58.628Z,7.50
2023-04-01T20:38:10.910Z,7.40
2023-04-01T20:42:26.296Z,7.40
2023-04-01T20:46:32.690Z,7.30
2023-04-01T20:50:38.073Z,7.30
2023-04-01T20:54:47.953Z,7.20
2023-04-01T20:58:56.618Z,7.20
2023-04-01T21:03:07.956Z,7.20
2023-04-01T21:07:19.150Z,7.10
2023-04-01T21:11:27.114Z,7.10
2023-04-01T21:15:37.842Z,7.10
2023-04-01T21:19:52.301Z,7.00
2023-04-01T21:24:03.094Z,7.00
2023-04-01T21:28:17.673Z,7.00
2023-04-01T21:32:31.355Z,6.90
2023-04-01T21:36:42.654Z,6.90
2023-04-01T21:40:51.892Z,6.90
2023-04-01T21:45:08.536Z,6.80
2023-04-01T21:49:22.020Z,6.80
2023-04-01T21:53:35.457Z,6.80
2023-04-01T21:57:45.879Z,6.70
2023-04-01T22:02:01.407Z,6.70
2023-04-01T23:15:02.046Z,6.00
2023-04-01T23:19:11.709Z,6.00
2023-04-01T23:23:22.033Z,5.90
2023-04-01T23:27:29.234Z,5.80
